Time;durP1;ratioP1;P1;durP2;ratioP2;P2;SDS_P1;SDS_P2;PMS_P1;PMS_P2;Temp;Humidity;BMP_temperature;BMP_pressure;BME280_temperature;BME280_humidity;BME280_pressure;Samples;Min_cycle;Max_cycle;Signal;HPM_P1;HPM_P2
2023/05/31 00:01:13;;;;;;;6.00;2.95;;;10.70;99.90;;;;;;5033008;28;20113;-69
2023/05/31 00:03:43;;;;;;;6.07;2.22;;;10.60;99.90;;;;;;5049652;28;20129;-69
2023/05/31 00:06:10;;;;;;;5.93;2.08;;;10.60;99.90;;;;;;5051682;28;20051;-69
2023/05/31 00:08:36;;;;;;;6.75;2.30;;;10.50;99.90;;;;;;5049848;28;20045;-69
2023/05/31 00:11:01;;;;;;;6.28;2.35;;;10.40;99.90;;;;;;5065565;28;20440;-69
2023/05/31 00:13:27;;;;;;;6.72;2.42;;;10.40;99.90;;;;;;5032885;28;20111;-69
2023/05/31 00:15:52;;;;;;;6.10;2.10;;;10.40;99.90;;;;;;5032872;28;20037;-69
2023/05/31 00:18:18;;;;;;;7.22;2.22;;;10.40;99.90;;;;;;5048113;28;20079;-69
2023/05/31 00:20:43;;;;;;;7.43;2.17;;;10.40;99.90;;;;;;5051633;28;20076;-70
2023/05/31 00:23:10;;;;;;;6.70;2.60;;;10.40;99.90;;;;;;5054417;28;20512;-69
2023/05/31 00:25:35;;;;;;;8.30;2.40;;;10.40;99.90;;;;;;5054161;28;20451;-69
2023/05/31 00:28:01;;;;;;;7.40;2.60;;;10.40;99.90;;;;;;5054432;28;20179;-70
2023/05/31 00:30:26;;;;;;;6.03;2.30;;;10.30;99.90;;;;;;5037553;28;20044;-70
2023/05/31 00:32:52;;;;;;;6.57;2.47;;;10.30;99.90;;;;;;5035056;28;20048;-70
2023/05/31 00:35:18;;;;;;;5.60;2.28;;;10.30;99.90;;;;;;5051593;28;20383;-70
2023/05/31 00:37:43;;;;;;;5.40;2.20;;;10.30;99.90;;;;;;5048184;28;20560;-69
2023/05/31 00:40:09;;;;;;;6.32;2.67;;;10.20;99.90;;;;;;5045682;28;20113;-70
2023/05/31 00:42:35;;;;;;;5.10;1.98;;;10.30;99.90;;;;;;5034883;28;20095;-70
2023/05/31 00:45:01;;;;;;;10.85;2.97;;;10.20;99.90;;;;;;5034791;28;20091;-70
2023/05/31 00:47:28;;;;;;;5.55;2.30;;;10.20;99.90;;;;;;5044300;28;20043;-69
2023/05/31 00:49:55;;;;;;;6.18;2.70;;;10.10;99.90;;;;;;5056089;28;20448;-70
2023/05/31 00:52:21;;;;;;;6.07;2.60;;;10.10;99.90;;;;;;5071210;28;20106;-70
2023/05/31 00:54:47;;;;;;;7.10;2.17;;;10.10;99.90;;;;;;5053601;28;20084;-69
2023/05/31 00:57:14;;;;;;;6.30;2.33;;;10.10;99.90;;;;;;5034397;28;20049;-70
2023/05/31 00:59:40;;;;;;;6.75;2.25;;;10.10;99.90;;;;;;5036011;28;20438;-69
2023/05/31 01:02:07;;;;;;;7.28;2.42;;;10.00;99.90;;;;;;5034468;28;20080;-70
2023/05/31 01:04:32;;;;;;;6.25;2.72;;;10.00;99.90;;;;;;5034446;28;20045;-69
2023/05/31 01:07:00;;;;;;;5.43;2.58;;;10.00;99.90;;;;;;5042823;28;20036;-70
2023/05/31 01:09:28;;;;;;;6.28;2.30;;;10.10;99.90;;;;;;5034658;28;20449;-69
2023/05/31 01:12:28;;;;;;;5.35;2.15;;;10.10;99.90;;;;;;5035834;28;20088;-70
2023/05/31 01:15:03;;;;;;;4.80;1.65;;;10.10;99.90;;;;;;5032152;28;20053;-69
2023/05/31 01:17:36;;;;;;;5.93;1.77;;;10.10;99.90;;;;;;5035106;28;20037;-70
2023/05/31 01:20:05;;;;;;;4.38;1.80;;;10.10;99.90;;;;;;5050996;28;20041;-69
2023/05/31 01:23:13;;;;;;;4.07;1.80;;;10.10;99.90;;;;;;5057140;28;20440;-69
2023/05/31 01:25:58;;;;;;;5.75;1.98;;;9.90;99.90;;;;;;5039234;28;20037;-70
2023/05/31 01:28:26;;;;;;;5.32;1.90;;;9.80;99.90;;;;;;5067351;28;20120;-70
2023/05/31 01:30:52;;;;;;;5.10;1.95;;;9.80;99.90;;;;;;5053335;28;20029;-70
2023/05/31 01:33:20;;;;;;;7.00;2.53;;;9.70;99.90;;;;;;5054022;28;20037;-70
2023/05/31 01:35:45;;;;;;;6.63;2.47;;;9.60;99.90;;;;;;5037105;28;20076;-69
2023/05/31 01:38:11;;;;;;;6.72;2.55;;;9.60;99.90;;;;;;5037265;28;20501;-70
2023/05/31 01:40:38;;;;;;;6.82;2.60;;;9.50;99.90;;;;;;5050401;28;20116;-70
2023/05/31 01:43:05;;;;;;;5.60;2.50;;;9.50;99.90;;;;;;5035225;28;20046;-70
2023/05/31 01:45:33;;;;;;;7.28;3.63;;;9.60;99.90;;;;;;5033956;28;20121;-70
2023/05/31 01:48:03;;;;;;;6.13;2.60;;;9.60;99.90;;;;;;5051191;28;20096;-69
2023/05/31 01:50:29;;;;;;;7.93;2.80;;;9.50;99.90;;;;;;5042961;28;20458;-69
2023/05/31 01:52:55;;;;;;;8.18;2.85;;;9.40;99.90;;;;;;5053463;28;20126;-70
2023/05/31 01:55:20;;;;;;;7.10;2.83;;;9.40;99.90;;;;;;5053433;28;20485;-69
2023/05/31 01:57:47;;;;;;;5.82;2.30;;;9.40;99.90;;;;;;5037778;28;20049;-70
2023/05/31 02:00:14;;;;;;;6.75;2.63;;;9.40;99.90;;;;;;5016987;28;20037;-70
2023/05/31 02:02:44;;;;;;;6.75;2.58;;;9.30;99.90;;;;;;5049694;28;20037;-69
2023/05/31 02:05:11;;;;;;;6.05;2.40;;;9.30;99.90;;;;;;5034587;28;20038;-70
2023/05/31 02:07:41;;;;;;;7.40;3.17;;;9.20;99.90;;;;;;5036204;28;20494;-71
2023/05/31 02:10:08;;;;;;;6.28;2.90;;;9.00;99.90;;;;;;5054764;28;20120;-70
2023/05/31 02:12:33;;;;;;;6.20;2.78;;;9.10;99.90;;;;;;5043223;28;20095;-69
2023/05/31 02:14:59;;;;;;;7.32;2.90;;;9.10;99.90;;;;;;5034480;28;20045;-70
2023/05/31 02:17:25;;;;;;;10.43;3.00;;;9.10;99.90;;;;;;5046556;28;20048;-70
2023/05/31 02:19:51;;;;;;;9.23;3.17;;;9.10;99.90;;;;;;5054329;28;20108;-70
2023/05/31 02:22:17;;;;;;;8.43;3.25;;;9.10;99.90;;;;;;5046096;28;20037;-70
2023/05/31 02:24:43;;;;;;;7.18;3.22;;;9.00;99.90;;;;;;5033124;28;20501;-70
2023/05/31 02:27:09;;;;;;;10.18;4.00;;;9.00;99.90;;;;;;5044246;28;20037;-70
2023/05/31 02:29:35;;;;;;;6.68;2.60;;;9.00;99.90;;;;;;5053000;28;20048;-70
2023/05/31 02:32:01;;;;;;;7.75;3.20;;;9.00;99.90;;;;;;5052220;28;20032;-70
2023/05/31 02:34:27;;;;;;;7.72;3.25;;;9.00;99.90;;;;;;5052698;28;20520;-70
2023/05/31 02:36:53;;;;;;;8.15;3.30;;;9.00;99.90;;;;;;5050807;28;20426;-70
2023/05/31 02:39:19;;;;;;;7.20;2.92;;;9.00;99.90;;;;;;5037476;28;20048;-69
2023/05/31 02:41:45;;;;;;;6.50;3.13;;;9.00;99.90;;;;;;5032691;28;20490;-69
2023/05/31 02:44:10;;;;;;;6.70;3.10;;;9.10;99.90;;;;;;5033602;28;20037;-70
2023/05/31 02:46:36;;;;;;;8.35;2.83;;;9.00;99.90;;;;;;5038706;28;20103;-70
2023/05/31 02:49:02;;;;;;;5.85;2.63;;;9.10;99.90;;;;;;5051698;28;20124;-70
2023/05/31 02:51:28;;;;;;;6.78;3.05;;;9.10;99.90;;;;;;5037641;28;20481;-70
2023/05/31 02:53:54;;;;;;;6.43;2.80;;;9.10;99.90;;;;;;5031983;28;20111;-70
2023/05/31 02:56:20;;;;;;;6.15;2.38;;;9.10;99.90;;;;;;5048954;28;20056;-69
2023/05/31 02:58:46;;;;;;;9.45;2.97;;;9.10;99.90;;;;;;5039000;28;20115;-70
2023/05/31 03:01:13;;;;;;;6.22;2.40;;;9.10;99.90;;;;;;5053592;28;20112;-70
2023/05/31 03:03:39;;;;;;;6.70;2.75;;;9.10;99.90;;;;;;5068864;28;20052;-70
2023/05/31 03:06:05;;;;;;;6.10;2.63;;;9.10;99.90;;;;;;5052128;28;20068;-70
2023/05/31 03:08:31;;;;;;;6.78;2.95;;;9.10;99.90;;;;;;5034380;28;20041;-70
2023/05/31 03:10:56;;;;;;;7.28;3.03;;;9.10;99.90;;;;;;5048753;28;20092;-70
2023/05/31 03:13:22;;;;;;;6.05;2.65;;;9.00;99.90;;;;;;5048759;28;20045;-70
2023/05/31 03:15:48;;;;;;;7.03;2.80;;;9.00;99.90;;;;;;5031681;28;20402;-70
2023/05/31 03:18:13;;;;;;;6.18;2.80;;;9.00;99.90;;;;;;5033887;28;20094;-70
2023/05/31 03:20:39;;;;;;;5.85;2.38;;;8.90;99.90;;;;;;5037277;28;20045;-70
2023/05/31 03:23:06;;;;;;;7.38;2.60;;;8.90;99.90;;;;;;5032311;28;20041;-70
2023/05/31 03:25:32;;;;;;;5.72;2.35;;;8.90;99.90;;;;;;5032032;28;20045;-70
2023/05/31 03:27:58;;;;;;;7.65;2.72;;;8.90;99.90;;;;;;5033640;28;20041;-70
2023/05/31 03:30:24;;;;;;;8.75;3.08;;;9.00;99.90;;;;;;5068470;28;20049;-70
2023/05/31 03:32:50;;;;;;;6.57;2.70;;;8.90;99.90;;;;;;5052106;28;20037;-70
2023/05/31 03:35:16;;;;;;;6.20;2.60;;;9.00;99.90;;;;;;5051803;28;20049;-70
2023/05/31 03:37:42;;;;;;;6.93;3.03;;;9.00;99.90;;;;;;5039283;28;20050;-70
2023/05/31 03:40:08;;;;;;;6.43;2.53;;;9.00;99.90;;;;;;5031417;28;20081;-70
2023/05/31 03:42:34;;;;;;;6.72;2.28;;;9.00;99.90;;;;;;5031793;28;20042;-70
2023/05/31 03:45:00;;;;;;;4.68;2.00;;;9.00;99.90;;;;;;5031790;28;20041;-70
2023/05/31 03:47:26;;;;;;;7.45;2.85;;;9.00;99.90;;;;;;5024160;28;20086;-70
2023/05/31 03:49:52;;;;;;;6.90;2.70;;;9.00;99.90;;;;;;5049941;28;20045;-70
2023/05/31 03:52:18;;;;;;;3.25;1.33;;;9.00;99.90;;;;;;5051040;28;20052;-70
2023/05/31 03:54:43;;;;;;;3.25;1.23;;;9.00;99.90;;;;;;5051598;28;20049;-70
2023/05/31 03:57:09;;;;;;;5.65;2.13;;;9.00;99.90;;;;;;5046624;28;20375;-70
2023/05/31 03:59:35;;;;;;;6.43;2.40;;;8.90;99.90;;;;;;5047258;28;20123;-70
2023/05/31 04:02:02;;;;;;;6.25;2.38;;;8.90;99.90;;;;;;5055681;28;20455;-70
2023/05/31 04:04:28;;;;;;;4.25;1.42;;;8.90;99.90;;;;;;5055388;28;20083;-70
2023/05/31 04:06:53;;;;;;;4.63;1.45;;;8.90;99.90;;;;;;5054664;28;20037;-70
2023/05/31 04:09:19;;;;;;;5.45;1.33;;;8.90;99.90;;;;;;5056922;28;20118;-70
2023/05/31 04:11:45;;;;;;;6.18;2.47;;;8.90;99.90;;;;;;5055874;28;20059;-70
2023/05/31 04:14:11;;;;;;;5.38;1.90;;;8.90;99.90;;;;;;5055396;28;20118;-70
2023/05/31 04:16:37;;;;;;;4.03;1.20;;;8.80;99.90;;;;;;5071082;28;20076;-71
2023/05/31 04:19:03;;;;;;;2.78;1.25;;;8.90;99.90;;;;;;5053408;28;20112;-71
2023/05/31 04:21:28;;;;;;;5.22;1.48;;;8.90;99.90;;;;;;5037378;28;20037;-71
2023/05/31 04:23:54;;;;;;;5.40;1.73;;;8.90;99.90;;;;;;5049420;28;20378;-71
2023/05/31 04:26:20;;;;;;;4.43;1.95;;;8.90;99.90;;;;;;5038371;28;20371;-69
2023/05/31 04:28:51;;;;;;;4.78;1.83;;;8.90;99.90;;;;;;5036499;28;20401;-69
2023/05/31 04:31:17;;;;;;;4.95;1.90;;;8.90;99.90;;;;;;5035048;28;20440;-69
2023/05/31 04:33:44;;;;;;;5.20;1.98;;;9.00;99.90;;;;;;5071659;28;20048;-70
2023/05/31 04:36:10;;;;;;;5.00;2.03;;;9.00;99.90;;;;;;5054803;28;20044;-70
2023/05/31 04:38:35;;;;;;;6.82;2.00;;;9.00;99.90;;;;;;5054100;28;20041;-69
2023/05/31 04:41:03;;;;;;;6.78;2.45;;;9.10;99.90;;;;;;5054906;28;20106;-69
2023/05/31 04:43:28;;;;;;;7.40;2.80;;;9.10;99.90;;;;;;5038497;28;20037;-70
2023/05/31 04:45:55;;;;;;;4.72;2.25;;;9.10;99.90;;;;;;5055986;28;20040;-69
2023/05/31 04:48:21;;;;;;;7.65;3.17;;;9.10;99.90;;;;;;5069005;28;20566;-69
2023/05/31 04:50:48;;;;;;;7.65;2.92;;;9.20;99.90;;;;;;5054149;28;20497;-70
2023/05/31 04:53:14;;;;;;;8.68;3.08;;;9.30;99.90;;;;;;5034673;28;20405;-70
2023/05/31 04:55:40;;;;;;;7.38;2.70;;;9.30;99.90;;;;;;5035928;28;20038;-69
2023/05/31 04:58:07;;;;;;;7.25;2.70;;;9.40;99.90;;;;;;5035780;28;20583;-69
2023/05/31 05:00:34;;;;;;;8.20;3.40;;;9.40;99.90;;;;;;5035733;28;20569;-70
2023/05/31 05:03:00;;;;;;;9.43;4.03;;;9.50;99.90;;;;;;5036077;28;20092;-70
2023/05/31 05:05:26;;;;;;;9.48;3.63;;;9.50;99.90;;;;;;5040289;28;20115;-70
2023/05/31 05:07:52;;;;;;;9.02;3.53;;;9.70;99.90;;;;;;5052976;28;20565;-69
2023/05/31 05:10:17;;;;;;;8.20;3.28;;;9.80;99.90;;;;;;5017932;28;20540;-70
2023/05/31 05:12:43;;;;;;;11.32;4.35;;;9.80;99.90;;;;;;5034375;28;20077;-70
2023/05/31 05:15:09;;;;;;;9.95;4.50;;;9.90;99.90;;;;;;5042982;28;20079;-70
2023/05/31 05:17:36;;;;;;;10.85;4.00;;;10.00;99.90;;;;;;5054097;28;20049;-69
2023/05/31 05:20:04;;;;;;;16.33;4.80;;;10.10;99.90;;;;;;5054453;28;20041;-70
2023/05/31 05:22:30;;;;;;;10.27;4.43;;;10.20;99.90;;;;;;5044378;28;20385;-69
2023/05/31 05:24:56;;;;;;;12.73;4.78;;;10.30;99.90;;;;;;5035468;28;20068;-69
2023/05/31 05:27:22;;;;;;;11.40;5.80;;;10.40;99.90;;;;;;5042037;28;20077;-69
2023/05/31 05:29:47;;;;;;;10.95;5.10;;;10.70;99.90;;;;;;5046497;28;20091;-69
2023/05/31 05:32:13;;;;;;;12.13;4.97;;;10.80;99.90;;;;;;5045629;28;20390;-69
2023/05/31 05:34:39;;;;;;;14.68;4.97;;;10.90;99.90;;;;;;5019145;28;20076;-69
2023/05/31 05:37:05;;;;;;;18.52;5.75;;;11.00;99.90;;;;;;5043579;28;20041;-69
2023/05/31 05:39:31;;;;;;;12.13;4.72;;;11.20;99.90;;;;;;5060545;28;20045;-69
2023/05/31 05:41:56;;;;;;;16.00;6.32;;;11.20;99.90;;;;;;5058374;28;20037;-69
2023/05/31 05:44:22;;;;;;;14.65;5.38;;;11.30;99.90;;;;;;5050345;28;20184;-69
2023/05/31 05:46:48;;;;;;;18.30;6.80;;;11.60;99.90;;;;;;5052996;28;20044;-69
2023/05/31 05:49:13;;;;;;;13.70;5.68;;;11.70;99.90;;;;;;5050848;28;20041;-69
2023/05/31 05:51:39;;;;;;;12.48;5.07;;;11.80;99.90;;;;;;5069225;28;20064;-69
2023/05/31 05:54:05;;;;;;;14.02;5.55;;;11.90;99.90;;;;;;5053587;28;20049;-69
2023/05/31 05:56:31;;;;;;;15.65;5.63;;;12.00;99.90;;;;;;5051249;28;20098;-69
2023/05/31 05:58:57;;;;;;;16.65;6.13;;;12.30;99.90;;;;;;5041531;28;20108;-69
2023/05/31 06:01:26;;;;;;;15.60;6.43;;;12.40;99.90;;;;;;5063314;28;20041;-67
2023/05/31 06:03:52;;;;;;;12.55;6.05;;;12.60;99.90;;;;;;5032696;28;20048;-70
2023/05/31 06:06:18;;;;;;;13.35;5.63;;;12.70;99.90;;;;;;5032488;28;20042;-70
2023/05/31 06:08:45;;;;;;;13.75;5.72;;;12.90;99.90;;;;;;5034040;28;20056;-70
2023/05/31 06:11:11;;;;;;;14.00;5.70;;;13.00;99.90;;;;;;5054534;28;20449;-70
2023/05/31 06:13:36;;;;;;;15.73;5.88;;;13.10;99.90;;;;;;5050769;28;20041;-70
2023/05/31 06:16:04;;;;;;;10.43;4.85;;;13.20;99.90;;;;;;5038323;28;20037;-70
2023/05/31 06:18:29;;;;;;;14.65;4.88;;;13.40;99.90;;;;;;5051584;28;20032;-70
2023/05/31 06:20:55;;;;;;;13.93;5.57;;;13.40;99.90;;;;;;5041642;28;20036;-70
2023/05/31 06:23:21;;;;;;;11.85;5.18;;;13.60;99.90;;;;;;5039817;28;20037;-70
2023/05/31 06:25:47;;;;;;;12.63;5.00;;;13.60;99.90;;;;;;5037089;28;20037;-70
2023/05/31 06:28:12;;;;;;;12.80;4.88;;;13.80;99.90;;;;;;5067421;28;20474;-70
2023/05/31 06:30:38;;;;;;;12.65;5.15;;;13.90;99.90;;;;;;5059965;28;20045;-70
2023/05/31 06:33:03;;;;;;;12.63;5.07;;;14.00;99.90;;;;;;5047858;28;20037;-70
2023/05/31 06:35:30;;;;;;;13.13;5.05;;;14.10;99.90;;;;;;5049744;28;20482;-70
2023/05/31 06:37:55;;;;;;;13.60;5.45;;;14.20;99.90;;;;;;5040983;28;20699;-70
2023/05/31 06:40:21;;;;;;;11.45;4.95;;;14.30;99.90;;;;;;5039942;28;20029;-70
2023/05/31 06:42:47;;;;;;;13.40;4.88;;;14.40;99.90;;;;;;5033346;28;20033;-70
2023/05/31 06:45:13;;;;;;;12.40;4.97;;;14.40;99.90;;;;;;5051512;28;20118;-70
2023/05/31 06:47:38;;;;;;;9.73;3.92;;;14.50;99.90;;;;;;5035757;28;20124;-73
2023/05/31 06:50:05;;;;;;;9.00;3.72;;;14.60;99.90;;;;;;5053714;28;20048;-69
2023/05/31 06:52:31;;;;;;;9.65;4.28;;;14.70;99.90;;;;;;5051761;28;20064;-70
2023/05/31 06:54:56;;;;;;;11.00;5.57;;;14.80;99.90;;;;;;5035041;28;20486;-70
2023/05/31 06:57:22;;;;;;;10.77;4.30;;;14.90;99.90;;;;;;5033163;28;20041;-70
2023/05/31 06:59:47;;;;;;;11.80;4.30;;;14.90;99.90;;;;;;5032229;28;20038;-70
2023/05/31 07:02:13;;;;;;;13.50;4.55;;;15.00;99.90;;;;;;5062526;28;20040;-70
2023/05/31 07:04:39;;;;;;;14.13;4.82;;;15.10;99.90;;;;;;5047178;28;20509;-71
2023/05/31 07:07:05;;;;;;;10.70;4.20;;;15.20;99.90;;;;;;5051368;28;20170;-70
2023/05/31 07:09:30;;;;;;;13.23;4.32;;;15.30;99.90;;;;;;5066919;28;20127;-70
2023/05/31 07:11:56;;;;;;;10.80;3.92;;;15.40;99.90;;;;;;5041160;28;20564;-70
2023/05/31 07:14:23;;;;;;;14.30;4.50;;;15.50;99.90;;;;;;5032149;28;20425;-71
2023/05/31 07:16:49;;;;;;;11.38;3.88;;;15.60;99.90;;;;;;5051516;28;20520;-70
2023/05/31 07:19:14;;;;;;;11.55;4.07;;;15.70;99.90;;;;;;5053154;28;20036;-70
2023/05/31 07:21:40;;;;;;;10.50;4.07;;;15.80;99.90;;;;;;5051990;28;20052;-70
2023/05/31 07:24:06;;;;;;;10.77;5.00;;;15.80;99.90;;;;;;5050969;28;20081;-70
2023/05/31 07:26:31;;;;;;;10.48;4.32;;;15.90;99.90;;;;;;5051061;28;20094;-70
2023/05/31 07:28:57;;;;;;;11.38;4.35;;;15.90;99.90;;;;;;5065162;28;20037;-70
2023/05/31 07:31:23;;;;;;;11.35;3.80;;;16.00;99.90;;;;;;5068551;28;20045;-69
2023/05/31 07:33:49;;;;;;;12.10;4.05;;;16.10;99.90;;;;;;5032855;28;20033;-70
2023/05/31 07:36:15;;;;;;;11.13;4.03;;;16.20;99.90;;;;;;5051052;28;20120;-70
2023/05/31 07:38:41;;;;;;;10.40;3.85;;;16.20;99.90;;;;;;5048923;28;20045;-70
2023/05/31 07:41:06;;;;;;;9.13;3.30;;;16.30;99.90;;;;;;5036060;28;20038;-70
2023/05/31 07:43:32;;;;;;;12.70;4.38;;;16.40;99.90;;;;;;5038699;28;20037;-69
2023/05/31 07:45:58;;;;;;;11.13;4.15;;;16.40;99.90;;;;;;5042720;28;20036;-69
2023/05/31 07:48:24;;;;;;;11.20;3.70;;;16.50;99.90;;;;;;5053027;28;20033;-69
2023/05/31 07:50:50;;;;;;;8.63;3.78;;;16.50;99.90;;;;;;5051682;28;20121;-69
2023/05/31 07:53:16;;;;;;;10.88;3.63;;;16.60;99.90;;;;;;5051514;28;20424;-70
2023/05/31 07:55:43;;;;;;;9.82;3.63;;;16.70;99.90;;;;;;5050709;28;20037;-70
2023/05/31 07:58:12;;;;;;;10.57;4.30;;;16.90;99.90;;;;;;5051190;28;20053;-69
2023/05/31 08:00:38;;;;;;;9.68;3.50;;;16.90;99.90;;;;;;5049955;28;20535;-70
2023/05/31 08:03:05;;;;;;;7.18;3.03;;;17.00;99.90;;;;;;5037411;28;20112;-70
2023/05/31 08:05:31;;;;;;;5.95;2.25;;;17.00;99.90;;;;;;5043489;28;20052;-70
2023/05/31 08:07:57;;;;;;;8.70;2.35;;;17.00;99.90;;;;;;5067195;28;20120;-70
2023/05/31 08:10:22;;;;;;;6.05;2.30;;;17.10;99.90;;;;;;5050480;28;20032;-70
2023/05/31 08:12:48;;;;;;;6.97;2.90;;;17.10;99.90;;;;;;5031582;28;20107;-71
2023/05/31 08:15:13;;;;;;;9.75;3.45;;;17.20;99.90;;;;;;5032052;28;20088;-70
2023/05/31 08:17:40;;;;;;;7.53;2.55;;;17.30;99.90;;;;;;5032703;28;20038;-70
2023/05/31 08:20:06;;;;;;;10.70;2.88;;;17.30;99.90;;;;;;5051672;28;20067;-70
2023/05/31 08:22:33;;;;;;;9.80;2.80;;;17.40;99.90;;;;;;5036320;28;20048;-70
2023/05/31 08:24:58;;;;;;;8.23;3.20;;;17.50;99.90;;;;;;5032913;28;20042;-70
2023/05/31 08:27:24;;;;;;;9.65;2.53;;;17.60;99.90;;;;;;5031430;28;20124;-70
2023/05/31 08:29:50;;;;;;;7.40;2.50;;;17.70;99.90;;;;;;5050138;28;20079;-70
2023/05/31 08:32:16;;;;;;;7.53;2.92;;;17.80;99.90;;;;;;5047688;28;20049;-70
2023/05/31 08:34:44;;;;;;;8.13;2.63;;;17.80;99.90;;;;;;5040861;28;20052;-70
2023/05/31 08:37:10;;;;;;;6.38;2.28;;;17.90;99.90;;;;;;5064804;28;20041;-70
2023/05/31 08:39:36;;;;;;;6.82;2.72;;;18.00;99.90;;;;;;5051655;28;20098;-70
2023/05/31 08:42:12;;;;;;;8.70;2.45;;;18.10;99.90;;;;;;5049278;28;20041;-70
2023/05/31 08:44:38;;;;;;;9.85;3.20;;;18.20;99.90;;;;;;5053318;28;20046;-70
2023/05/31 08:47:22;;;;;;;8.18;2.55;;;18.20;99.90;;;;;;5067099;28;20051;-70
2023/05/31 08:49:49;;;;;;;9.43;3.25;;;18.20;99.90;;;;;;5036483;28;20561;-70
2023/05/31 08:52:17;;;;;;;8.32;2.90;;;18.40;99.90;;;;;;5056105;28;20183;-70
2023/05/31 08:54:44;;;;;;;8.23;2.83;;;18.40;99.90;;;;;;5053131;28;20049;-70
2023/05/31 08:57:11;;;;;;;8.27;3.13;;;18.40;99.90;;;;;;5051417;28;20517;-70
2023/05/31 08:59:37;;;;;;;7.00;2.60;;;18.50;99.90;;;;;;5035577;28;20038;-70
2023/05/31 09:02:04;;;;;;;7.40;2.42;;;18.60;99.90;;;;;;5064900;28;20049;-70
2023/05/31 09:04:30;;;;;;;8.10;3.40;;;18.60;99.90;;;;;;5039498;28;20053;-70
2023/05/31 09:06:55;;;;;;;9.77;3.17;;;18.70;99.90;;;;;;5044561;28;20405;-70
2023/05/31 09:09:21;;;;;;;9.13;2.80;;;18.80;99.90;;;;;;5067678;28;20064;-70
2023/05/31 09:11:47;;;;;;;7.65;2.08;;;18.80;99.90;;;;;;5054554;28;20084;-70
2023/05/31 09:14:12;;;;;;;9.60;2.42;;;18.80;99.90;;;;;;5053365;28;20397;-70
2023/05/31 09:16:38;;;;;;;7.88;2.47;;;19.00;99.90;;;;;;5050822;28;20555;-70
2023/05/31 09:19:05;;;;;;;7.32;2.28;;;19.10;99.90;;;;;;5049088;28;20049;-70
2023/05/31 09:21:39;;;;;;;9.70;2.45;;;19.30;99.90;;;;;;5017788;28;20045;-70
2023/05/31 09:24:05;;;;;;;7.68;2.42;;;19.20;99.90;;;;;;5038142;28;20413;-70
2023/05/31 09:26:32;;;;;;;8.75;2.65;;;19.40;99.90;;;;;;5050908;28;20049;-69
2023/05/31 09:28:58;;;;;;;9.40;2.58;;;19.40;99.90;;;;;;5036956;28;20468;-69
2023/05/31 09:31:25;;;;;;;9.55;3.13;;;19.50;99.90;;;;;;5052679;28;20090;-69
2023/05/31 09:33:53;;;;;;;8.57;2.30;;;19.50;99.90;;;;;;5052383;28;20060;-70
2023/05/31 09:36:27;;;;;;;8.43;2.70;;;19.40;99.90;;;;;;5034938;28;20052;-70
2023/05/31 09:39:02;;;;;;;9.60;3.05;;;19.50;99.90;;;;;;5033692;28;20048;-69
2023/05/31 09:41:28;;;;;;;6.68;2.38;;;19.50;99.90;;;;;;5038403;28;20037;-70
2023/05/31 09:43:53;;;;;;;7.65;3.10;;;19.60;99.90;;;;;;5047582;28;20033;-69
2023/05/31 09:46:21;;;;;;;8.32;2.50;;;19.60;99.90;;;;;;5046749;28;20048;-69
2023/05/31 09:49:00;;;;;;;10.27;2.92;;;19.70;99.90;;;;;;5038553;28;20041;-68
2023/05/31 09:51:26;;;;;;;8.73;2.40;;;19.80;99.90;;;;;;5052857;28;20052;-69
2023/05/31 09:53:55;;;;;;;9.80;3.28;;;19.90;99.90;;;;;;5050658;28;20060;-69
2023/05/31 09:56:22;;;;;;;8.57;3.00;;;20.00;99.90;;;;;;5037039;28;20053;-70
2023/05/31 09:58:51;;;;;;;9.48;3.13;;;20.00;99.90;;;;;;5052111;28;20041;-70
2023/05/31 10:01:17;;;;;;;9.02;2.92;;;20.00;99.90;;;;;;5037903;28;20492;-70
2023/05/31 10:03:44;;;;;;;11.23;3.95;;;20.20;99.90;;;;;;5046096;28;20041;-70
2023/05/31 10:06:11;;;;;;;12.55;3.95;;;20.00;99.90;;;;;;5052395;28;20040;-69
2023/05/31 10:08:37;;;;;;;9.57;3.67;;;20.00;99.90;;;;;;5047161;28;20432;-70
2023/05/31 10:11:03;;;;;;;13.10;3.15;;;19.90;99.90;;;;;;5041610;28;20382;-70
2023/05/31 10:13:31;;;;;;;15.57;4.07;;;20.00;99.90;;;;;;5053577;28;20033;-70
2023/05/31 10:16:05;;;;;;;12.80;4.22;;;20.10;99.90;;;;;;5053024;28;20122;-69
2023/05/31 10:18:36;;;;;;;10.38;3.42;;;20.20;99.90;;;;;;5047022;28;20033;-74
2023/05/31 10:21:22;;;;;;;11.82;3.70;;;20.10;99.90;;;;;;5049986;28;20049;-77
2023/05/31 10:24:08;;;;;;;10.50;3.30;;;20.20;99.90;;;;;;5040437;28;20041;-76
2023/05/31 10:26:59;;;;;;;11.52;3.67;;;20.20;99.90;;;;;;5037097;28;20041;-77
2023/05/31 10:29:30;;;;;;;11.60;3.45;;;20.00;99.90;;;;;;5037825;28;20048;-77
2023/05/31 10:32:01;;;;;;;;;;;20.00;99.90;;;;;;5038137;28;20045;-77
2023/05/31 10:34:28;;;;;;;10.20;3.47;;;19.90;99.90;;;;;;5035474;28;19917;-77
2023/05/31 10:36:55;;;;;;;10.40;3.75;;;19.80;99.90;;;;;;5069277;28;20073;-78
2023/05/31 10:39:33;;;;;;;9.40;3.92;;;20.00;99.90;;;;;;5054005;28;20061;-77
2023/05/31 10:42:09;;;;;;;14.25;4.60;;;20.00;99.90;;;;;;5040244;28;20493;-77
2023/05/31 10:44:55;;;;;;;12.68;4.10;;;20.00;99.90;;;;;;5032673;28;20073;-77
2023/05/31 10:47:30;;;;;;;10.23;4.30;;;20.00;99.90;;;;;;5044962;28;20494;-77
2023/05/31 10:49:59;;;;;;;10.82;4.22;;;20.10;99.90;;;;;;5050643;28;20052;-77
2023/05/31 10:52:29;;;;;;;13.15;5.45;;;19.90;99.90;;;;;;5051303;28;20514;-77
2023/05/31 10:55:18;;;;;;;11.02;4.38;;;20.00;99.90;;;;;;5052458;28;20056;-77
2023/05/31 10:57:48;;;;;;;11.43;4.57;;;19.90;99.90;;;;;;5068949;28;20098;-77
2023/05/31 11:00:19;;;;;;;12.50;4.70;;;20.00;99.90;;;;;;5048875;28;20103;-77
2023/05/31 11:02:54;;;;;;;14.00;4.90;;;20.10;99.90;;;;;;5044421;28;20037;-77
2023/05/31 11:05:27;;;;;;;11.20;4.20;;;20.10;99.90;;;;;;5053229;28;20047;-78
2023/05/31 11:07:54;;;;;;;10.45;4.63;;;20.20;99.90;;;;;;5044406;28;20080;-78
2023/05/31 11:10:34;;;;;;;11.68;5.03;;;20.20;99.90;;;;;;5048827;28;20056;-79
2023/05/31 11:13:04;;;;;;;10.93;5.40;;;20.20;99.90;;;;;;5035830;28;20116;-79
2023/05/31 11:15:44;;;;;;;11.10;4.50;;;20.00;99.90;;;;;;5040008;28;20045;-79
2023/05/31 11:18:15;;;;;;;9.43;4.38;;;20.00;99.90;;;;;;5045727;28;20044;-78
2023/05/31 11:20:41;;;;;;;12.17;5.30;;;20.10;99.90;;;;;;5039688;28;20524;-76
2023/05/31 11:23:23;;;;;;;11.20;4.45;;;20.00;99.90;;;;;;5034309;28;20296;-76
2023/05/31 11:26:14;;;;;;;10.43;4.22;;;20.00;99.90;;;;;;5038428;28;20095;-76
2023/05/31 11:29:01;;;;;;;12.35;4.95;;;20.00;99.90;;;;;;5051721;28;20037;-76
2023/05/31 11:31:55;;;;;;;10.30;4.75;;;19.70;99.90;;;;;;5026194;28;20102;-76
2023/05/31 11:34:26;;;;;;;9.98;4.35;;;19.60;99.90;;;;;;5067502;28;20053;-75
2023/05/31 11:36:52;;;;;;;9.15;5.00;;;19.70;99.90;;;;;;5051127;28;20482;-77
2023/05/31 11:39:18;;;;;;;9.75;4.35;;;19.80;99.90;;;;;;5048081;28;20079;-77
2023/05/31 11:41:44;;;;;;;8.88;3.92;;;19.80;99.90;;;;;;5038698;28;20083;-75
2023/05/31 11:44:26;;;;;;;12.57;5.03;;;19.80;99.90;;;;;;5042176;28;20489;-75
2023/05/31 11:46:55;;;;;;;;;;;19.60;99.90;;;;;;5033826;28;20045;-76
2023/05/31 11:49:21;;;;;;;10.45;4.43;;;19.60;99.90;;;;;;5035297;28;19978;-76
2023/05/31 11:51:48;;;;;;;12.40;5.50;;;19.60;99.90;;;;;;5052236;28;20076;-76
2023/05/31 11:54:14;;;;;;;10.48;5.15;;;19.60;99.90;;;;;;5037871;28;20052;-76
2023/05/31 11:56:41;;;;;;;10.63;4.68;;;19.60;99.90;;;;;;5051448;28;20045;-76
2023/05/31 11:59:07;;;;;;;11.13;5.18;;;19.70;99.90;;;;;;5040567;28;20065;-76
2023/05/31 12:01:39;;;;;;;12.60;5.10;;;19.80;99.90;;;;;;5050282;28;20498;-76
2023/05/31 12:04:05;;;;;;;;;;;19.80;99.90;;;;;;5040731;28;20045;-75
2023/05/31 12:06:33;;;;;;;10.50;5.38;;;19.80;99.90;;;;;;5036614;28;19970;-76
2023/05/31 12:08:59;;;;;;;11.07;4.55;;;19.70;99.90;;;;;;5050110;28;20090;-75
2023/05/31 12:11:27;;;;;;;13.65;4.93;;;19.60;99.90;;;;;;5050999;28;20068;-75
2023/05/31 12:13:57;;;;;;;10.80;5.03;;;19.60;99.90;;;;;;5041495;28;20410;-76
2023/05/31 12:16:23;;;;;;;10.75;4.18;;;19.50;99.90;;;;;;5036631;28;20049;-75
2023/05/31 12:18:49;;;;;;;10.32;4.15;;;19.40;99.90;;;;;;5054394;28;20083;-75
2023/05/31 12:21:15;;;;;;;9.50;4.38;;;19.50;99.90;;;;;;5055959;28;20048;-76
2023/05/31 12:23:52;;;;;;;8.95;4.28;;;19.60;99.90;;;;;;5041755;28;20045;-76
2023/05/31 12:26:18;;;;;;;11.40;4.70;;;19.60;99.90;;;;;;5048733;28;20063;-75
2023/05/31 12:28:44;;;;;;;12.70;4.63;;;19.60;99.90;;;;;;5062892;28;20053;-75
2023/05/31 12:31:09;;;;;;;12.48;4.35;;;19.70;99.90;;;;;;5039475;28;20041;-76
2023/05/31 12:33:35;;;;;;;9.07;4.38;;;19.70;99.90;;;;;;5053489;28;20413;-74
2023/05/31 12:36:03;;;;;;;10.38;4.07;;;19.60;99.90;;;;;;5042114;28;20073;-75
2023/05/31 12:38:29;;;;;;;10.38;4.13;;;19.40;99.90;;;;;;5044288;28;20033;-75
2023/05/31 12:40:55;;;;;;;9.70;4.40;;;19.40;99.90;;;;;;5046366;28;20525;-75
2023/05/31 12:43:21;;;;;;;9.38;3.90;;;19.30;99.90;;;;;;5054873;28;20052;-75
2023/05/31 12:45:47;;;;;;;12.30;4.18;;;19.30;99.90;;;;;;5040511;28;20092;-75
2023/05/31 12:48:12;;;;;;;9.30;4.10;;;19.40;99.90;;;;;;5047563;28;20509;-75
2023/05/31 12:50:46;;;;;;;11.18;4.55;;;19.20;99.90;;;;;;5050366;28;20508;-75